createdAt,value
2018-03-04T00:00:44.274Z,86.87
2018-03-04T00:03:11.824Z,82.28
2018-03-04T00:05:39.343Z,94.65
2018-03-04T00:08:07.024Z,90.10
2018-03-04T00:10:34.516Z,85.30
2018-03-04T00:13:02.242Z,85.65
2018-03-04T00:15:29.746Z,90.53
2018-03-04T00:17:57.292Z,88.57
2018-03-04T00:20:24.929Z,91.22
2018-03-04T00:22:52.440Z,91.53
2018-03-04T00:25:20.729Z,95.87
2018-03-04T00:27:48.991Z,94.55
2018-03-04T00:30:16.517Z,96.22
2018-03-04T00:32:44.058Z,99.40
2018-03-04T00:35:11.585Z,101.38
2018-03-04T00:37:39.094Z,102.03
2018-03-04T00:40:06.609Z,98.05
2018-03-04T00:42:34.121Z,101.05
2018-03-04T00:45:01.644Z,105.45
2018-03-04T00:47:29.183Z,114.12
2018-03-04T00:49:56.713Z,108.72
2018-03-04T04:16:57.913Z,153.38
2018-03-04T04:19:25.407Z,134.32
2018-03-04T04:21:52.930Z,138.98
2018-03-04T04:24:20.580Z,144.25
2018-03-04T04:26:48.130Z,138.27
2018-03-04T04:29:15.642Z,146.00
2018-03-04T04:31:43.147Z,138.93
2018-03-04T04:34:11.407Z,144.48
2018-03-04T04:36:39.790Z,139.45
2018-03-04T04:39:07.316Z,137.65
2018-03-04T04:41:34.917Z,144.52
2018-03-04T04:44:02.448Z,135.70
2018-03-04T04:46:29.949Z,139.40
2018-03-04T04:48:57.979Z,142.50
2018-03-04T04:51:25.557Z,135.20
2018-03-04T04:53:53.048Z,139.32
2018-03-04T04:56:20.590Z,140.10
2018-03-04T04:58:48.135Z,143.85
2018-03-04T05:01:15.638Z,150.15
2018-03-04T05:03:43.153Z,147.05
2018-03-04T05:06:10.654Z,151.27
2018-03-04T05:08:38.962Z,154.80
2018-03-04T05:11:06.473Z,155.60
2018-03-04T05:13:33.998Z,170.82
2018-03-04T05:16:01.652Z,161.52
2018-03-04T05:18:29.157Z,161.80
2018-03-04T05:20:56.679Z,159.05
2018-03-04T05:23:24.946Z,165.18
2018-03-04T05:25:53.358Z,160.88
2018-03-04T05:28:20.862Z,152.02
2018-03-04T05:30:48.391Z,141.12
2018-03-04T05:33:15.898Z,148.20
2018-03-04T05:35:43.411Z,149.02
2018-03-04T05:38:11.147Z,152.00
2018-03-04T05:40:38.642Z,145.35
2018-03-04T05:43:06.171Z,153.38
2018-03-04T05:45:33.693Z,156.27
2018-03-04T05:48:01.978Z,154.27
2018-03-04T05:50:30.253Z,151.85
2018-03-04T05:52:58.552Z,157.65
2018-03-04T05:55:26.098Z,146.20
2018-03-04T05:57:53.643Z,155.52
2018-03-04T06:00:22.437Z,147.65
2018-03-04T06:02:50.119Z,154.50
2018-03-04T06:05:17.791Z,152.45
2018-03-04T06:07:45.288Z,151.73
2018-03-04T06:10:13.657Z,156.48
2018-03-04T06:12:41.389Z,160.30
2018-03-04T06:15:08.908Z,146.07
2018-03-04T06:17:37.176Z,152.77
2018-03-04T06:20:05.504Z,149.65
2018-03-04T06:22:33.039Z,158.73
2018-03-04T06:25:00.536Z,151.35
2018-03-04T06:27:28.169Z,142.18
2018-03-04T06:29:55.657Z,143.25
2018-03-04T06:32:23.175Z,146.23
2018-03-04T06:34:50.946Z,139.88
2018-03-04T06:37:18.461Z,131.52
2018-03-04T06:39:46.599Z,134.05
2018-03-04T06:42:14.110Z,132.40
2018-03-04T06:44:42.443Z,128.05
2018-03-04T06:47:09.976Z,125.72
2018-03-04T06:49:37.491Z,127.18
2018-03-04T06:52:05.035Z,121.28
2018-03-04T06:54:32.626Z,125.47
2018-03-04T06:57:00.136Z,129.50
2018-03-04T06:59:27.656Z,129.07
2018-03-04T07:01:55.177Z,116.12
2018-03-04T07:04:22.815Z,124.75
2018-03-04T07:06:50.311Z,127.85
2018-03-04T07:09:17.820Z,122.10
2018-03-04T07:11:45.355Z,120.57
2018-03-04T07:14:12.873Z,118.62
2018-03-04T07:16:40.401Z,127.38
2018-03-04T07:19:07.907Z,116.00
2018-03-04T07:21:35.574Z,114.25
2018-03-04T07:24:03.078Z,113.65
2018-03-04T07:26:30.756Z,118.40
2018-03-04T07:28:58.254Z,116.20
2018-03-04T07:31:25.916Z,109.15
2018-03-04T07:33:53.595Z,114.80
2018-03-04T07:36:21.084Z,108.40
2018-03-04T07:38:48.597Z,113.05
2018-03-04T07:41:16.135Z,116.18
2018-03-04T07:43:43.815Z,110.28
2018-03-04T07:46:11.329Z,114.22
2018-03-04T07:48:38.868Z,115.72
2018-03-04T07:51:06.379Z,111.45
2018-03-04T07:53:33.907Z,104.32
2018-03-04T07:56:01.413Z,104.75
2018-03-04T07:58:28.988Z,89.47
2018-03-04T08:00:56.616Z,103.20
2018-03-04T08:03:24.119Z,100.60
2018-03-04T08:05:51.633Z,101.77
2018-03-04T08:08:19.358Z,102.03
2018-03-04T08:10:46.896Z,99.97
2018-03-04T08:13:14.414Z,99.87
2018-03-04T08:15:41.981Z,96.83
2018-03-04T08:18:09.662Z,96.80
2018-03-04T08:20:37.149Z,96.83
2018-03-04T08:23:04.770Z,96.80
2018-03-04T08:25:34.289Z,81.83
2018-03-04T08:28:13.998Z,84.20
2018-03-04T08:30:41.664Z,78.37
2018-03-04T08:33:09.168Z,79.17
2018-03-04T08:35:36.794Z,80.30
2018-03-04T08:38:04.458Z,74.67
2018-03-04T08:40:31.967Z,76.93
2018-03-04T08:42:59.586Z,74.20
2018-03-04T08:45:27.110Z,76.47
2018-03-04T08:47:55.507Z,78.53
2018-03-04T08:50:23.171Z,80.47
2018-03-04T08:52:51.154Z,79.97
2018-03-04T08:55:18.720Z,73.47
2018-03-04T08:57:46.212Z,72.93
2018-03-04T09:00:13.733Z,73.97
2018-03-04T09:02:41.388Z,74.43
2018-03-04T09:05:08.914Z,76.00
2018-03-04T09:07:37.195Z,73.33
2018-03-04T09:10:04.749Z,74.40
2018-03-04T09:12:32.237Z,70.13
2018-03-04T09:14:59.792Z,69.37
2018-03-04T09:17:27.320Z,72.10
2018-03-04T09:19:54.835Z,73.68
2018-03-04T09:22:23.103Z,75.83
2018-03-04T09:24:50.600Z,73.10
2018-03-04T09:27:18.123Z,70.57
2018-03-04T09:29:45.636Z,67.90
2018-03-04T09:32:13.160Z,70.67
2018-03-04T09:34:40.698Z,70.97
2018-03-04T19:59:39.335Z,76.10
2018-03-04T20:02:06.880Z,74.28
2018-03-04T20:04:34.744Z,80.53
2018-03-04T20:07:02.288Z,92.23
2018-03-04T20:09:29.860Z,74.72
2018-03-04T20:11:57.394Z,77.40
2018-03-04T20:14:24.962Z,79.60
2018-03-04T20:16:52.511Z,72.87
2018-03-04T20:19:20.799Z,80.90
2018-03-04T20:21:48.303Z,76.93
2018-03-04T20:24:15.830Z,78.75
2018-03-04T20:26:43.397Z,79.87
2018-03-04T20:29:11.218Z,73.53
2018-03-04T20:31:39.499Z,74.18
2018-03-04T20:34:07.016Z,79.20
2018-03-04T20:36:34.540Z,83.45
2018-03-04T20:39:02.110Z,75.12
2018-03-04T20:41:29.700Z,84.50
2018-03-04T20:43:57.617Z,78.40
2018-03-04T20:46:25.147Z,84.53
2018-03-04T20:48:52.707Z,72.87
2018-03-04T20:51:20.224Z,74.30
2018-03-04T20:53:47.710Z,76.75
2018-03-04T20:56:15.430Z,80.93
2018-03-04T20:58:42.977Z,74.65
2018-03-04T21:01:10.508Z,74.15
2018-03-04T21:03:38.819Z,80.43
2018-03-04T21:06:06.384Z,74.78
2018-03-04T21:08:33.912Z,80.50
2018-03-04T21:11:01.492Z,75.28
2018-03-04T21:13:29.018Z,73.25
2018-03-04T21:15:56.748Z,79.50
2018-03-04T21:18:24.296Z,74.70
2018-03-04T21:20:51.811Z,74.90
2018-03-04T21:23:19.320Z,74.47
2018-03-04T21:25:46.837Z,77.50
2018-03-04T21:28:14.392Z,74.97
2018-03-04T21:30:41.913Z,69.22
2018-03-04T21:33:09.407Z,74.75
2018-03-04T21:35:37.694Z,77.20
2018-03-04T21:38:05.262Z,77.45
2018-03-04T21:40:32.783Z,77.95
2018-03-04T21:43:00.297Z,81.25
2018-03-04T21:45:27.820Z,77.45
2018-03-04T21:47:56.088Z,77.00
2018-03-04T21:50:24.492Z,74.93
2018-03-04T21:52:51.979Z,74.62
2018-03-04T21:55:19.477Z,77.60
2018-03-04T21:57:47.771Z,86.60
2018-03-04T22:00:15.256Z,76.37
2018-03-04T22:02:42.779Z,81.75
2018-03-04T22:05:10.466Z,81.47
2018-03-04T22:07:37.972Z,77.30
2018-03-04T22:10:05.498Z,72.55
2018-03-04T22:12:33.056Z,72.18
2018-03-04T22:15:00.712Z,77.40
2018-03-04T22:17:28.237Z,76.68
2018-03-04T22:19:56.518Z,74.82
2018-03-04T22:22:24.073Z,72.57
2018-03-04T22:24:51.575Z,75.10
2018-03-04T22:27:20.854Z,73.57
2018-03-04T22:29:48.403Z,75.12
2018-03-04T22:32:15.910Z,77.03
2018-03-04T22:34:43.524Z,74.57
2018-03-04T22:37:11.039Z,79.78
2018-03-04T22:39:38.634Z,78.87
2018-03-04T22:42:06.297Z,71.03
2018-03-04T22:44:33.809Z,75.03
2018-03-04T22:47:01.322Z,70.72
2018-03-04T22:49:28.852Z,73.10
2018-03-04T22:51:57.134Z,75.95
2018-03-04T22:54:25.466Z,73.28
2018-03-04T22:56:52.964Z,78.78
2018-03-04T22:59:20.651Z,73.68
2018-03-04T23:01:48.179Z,78.05
2018-03-04T23:04:16.482Z,78.30
2018-03-04T23:06:44.064Z,73.57
2018-03-04T23:09:11.565Z,73.87
2018-03-04T23:11:40.119Z,72.85
2018-03-04T23:14:07.611Z,79.18
2018-03-04T23:16:35.893Z,72.28
2018-03-04T23:19:03.882Z,73.45
2018-03-04T23:21:31.442Z,73.45
2018-03-04T23:23:58.977Z,80.87
2018-03-04T23:26:27.365Z,78.82
2018-03-04T23:28:54.897Z,81.20
2018-03-04T23:31:22.509Z,77.55
2018-03-04T23:33:50.004Z,76.05
2018-03-04T23:36:17.540Z,80.15
2018-03-04T23:38:45.030Z,79.50
2018-03-04T23:41:12.951Z,76.47
2018-03-04T23:43:40.532Z,79.03
2018-03-04T23:46:08.041Z,76.87
2018-03-04T23:48:36.331Z,78.32
2018-03-04T23:51:04.051Z,86.25
2018-03-04T23:53:31.584Z,87.97
2018-03-04T23:55:59.070Z,84.05
2018-03-04T23:58:26.781Z,78.55
